sensor_id;sensor_type;location;lat;lon;timestamp;P1;durP1;ratioP1;P2;durP2;ratioP2
22005;SDS011;11167;46.988;15.470;2022-08-19T00:01:29;3.35;;;1.87;;
22005;SDS011;11167;46.988;15.470;2022-08-19T00:03:31;3.60;;;1.32;;
22005;SDS011;11167;46.988;15.470;2022-08-19T00:05:32;4.45;;;1.47;;
22005;SDS011;11167;46.988;15.470;2022-08-19T00:07:34;3.58;;;1.67;;
22005;SDS011;11167;46.988;15.470;2022-08-19T00:09:35;5.25;;;1.60;;
22005;SDS011;11167;46.988;15.470;2022-08-19T00:11:37;2.95;;;1.50;;
22005;SDS011;11167;46.988;15.470;2022-08-19T00:13:38;2.85;;;1.62;;
22005;SDS011;11167;46.988;15.470;2022-08-19T00:15:39;3.35;;;1.60;;
22005;SDS011;11167;46.988;15.470;2022-08-19T00:17:45;3.80;;;1.37;;
22005;SDS011;11167;46.988;15.470;2022-08-19T00:19:44;3.33;;;1.65;;
22005;SDS011;11167;46.988;15.470;2022-08-19T00:21:45;3.05;;;1.67;;
22005;SDS011;11167;46.988;15.470;2022-08-19T00:23:46;4.90;;;1.77;;
22005;SDS011;11167;46.988;15.470;2022-08-19T00:25:48;3.40;;;1.65;;
22005;SDS011;11167;46.988;15.470;2022-08-19T00:27:49;3.67;;;1.70;;
22005;SDS011;11167;46.988;15.470;2022-08-19T00:29:50;3.08;;;1.70;;
22005;SDS011;11167;46.988;15.470;2022-08-19T00:31:52;6.17;;;1.85;;
22005;SDS011;11167;46.988;15.470;2022-08-19T00:33:57;6.00;;;1.85;;
22005;SDS011;11167;46.988;15.470;2022-08-19T00:35:58;3.75;;;1.87;;
22005;SDS011;11167;46.988;15.470;2022-08-19T00:38:01;5.53;;;1.95;;
22005;SDS011;11167;46.988;15.470;2022-08-19T00:40:03;5.10;;;1.70;;
22005;SDS011;11167;46.988;15.470;2022-08-19T00:42:06;3.62;;;1.85;;
22005;SDS011;11167;46.988;15.470;2022-08-19T00:44:18;3.87;;;1.98;;
22005;SDS011;11167;46.988;15.470;2022-08-19T00:46:21;4.58;;;2.05;;
22005;SDS011;11167;46.988;15.470;2022-08-19T00:48:22;2.42;;;1.37;;
22005;SDS011;11167;46.988;15.470;2022-08-19T00:50:24;3.35;;;1.72;;
22005;SDS011;11167;46.988;15.470;2022-08-19T00:52:30;2.83;;;1.62;;
22005;SDS011;11167;46.988;15.470;2022-08-19T00:54:30;3.47;;;1.72;;
22005;SDS011;11167;46.988;15.470;2022-08-19T00:56:31;3.08;;;1.57;;
22005;SDS011;11167;46.988;15.470;2022-08-19T00:58:34;3.75;;;1.62;;
22005;SDS011;11167;46.988;15.470;2022-08-19T01:00:36;4.97;;;1.60;;
22005;SDS011;11167;46.988;15.470;2022-08-19T01:02:38;3.22;;;1.80;;
22005;SDS011;11167;46.988;15.470;2022-08-19T01:04:40;3.25;;;1.60;;
22005;SDS011;11167;46.988;15.470;2022-08-19T01:06:42;4.42;;;1.82;;
22005;SDS011;11167;46.988;15.470;2022-08-19T01:08:44;4.40;;;1.62;;
22005;SDS011;11167;46.988;15.470;2022-08-19T01:10:50;4.72;;;1.80;;
22005;SDS011;11167;46.988;15.470;2022-08-19T01:12:50;5.08;;;1.50;;
22005;SDS011;11167;46.988;15.470;2022-08-19T01:14:52;4.10;;;1.60;;
22005;SDS011;11167;46.988;15.470;2022-08-19T01:16:55;2.77;;;1.47;;
22005;SDS011;11167;46.988;15.470;2022-08-19T01:18:57;4.75;;;2.10;;
22005;SDS011;11167;46.988;15.470;2022-08-19T01:21:00;3.98;;;1.42;;
22005;SDS011;11167;46.988;15.470;2022-08-19T01:23:03;3.87;;;1.80;;
22005;SDS011;11167;46.988;15.470;2022-08-19T01:25:05;3.90;;;1.75;;
22005;SDS011;11167;46.988;15.470;2022-08-19T01:27:07;4.22;;;1.50;;
22005;SDS011;11167;46.988;15.470;2022-08-19T01:29:10;3.40;;;1.70;;
22005;SDS011;11167;46.988;15.470;2022-08-19T01:31:16;4.08;;;1.60;;
22005;SDS011;11167;46.988;15.470;2022-08-19T01:33:19;3.05;;;1.42;;
22005;SDS011;11167;46.988;15.470;2022-08-19T01:35:21;3.80;;;1.62;;
22005;SDS011;11167;46.988;15.470;2022-08-19T01:37:24;2.33;;;1.30;;
22005;SDS011;11167;46.988;15.470;2022-08-19T01:39:25;5.78;;;1.50;;
22005;SDS011;11167;46.988;15.470;2022-08-19T01:41:26;3.85;;;1.52;;
22005;SDS011;11167;46.988;15.470;2022-08-19T01:43:28;4.40;;;1.62;;
22005;SDS011;11167;46.988;15.470;2022-08-19T01:45:30;5.58;;;1.50;;
22005;SDS011;11167;46.988;15.470;2022-08-19T01:47:34;4.70;;;1.70;;
22005;SDS011;11167;46.988;15.470;2022-08-19T01:49:36;3.70;;;1.50;;
22005;SDS011;11167;46.988;15.470;2022-08-19T01:51:37;3.35;;;1.62;;
22005;SDS011;11167;46.988;15.470;2022-08-19T01:53:39;3.40;;;1.80;;
22005;SDS011;11167;46.988;15.470;2022-08-19T01:56:03;4.62;;;1.40;;
22005;SDS011;11167;46.988;15.470;2022-08-19T01:58:05;2.50;;;1.62;;
22005;SDS011;11167;46.988;15.470;2022-08-19T02:00:18;2.67;;;1.40;;
22005;SDS011;11167;46.988;15.470;2022-08-19T02:02:20;3.65;;;1.80;;
22005;SDS011;11167;46.988;15.470;2022-08-19T02:04:21;3.50;;;1.77;;
22005;SDS011;11167;46.988;15.470;2022-08-19T02:06:23;3.52;;;1.55;;
22005;SDS011;11167;46.988;15.470;2022-08-19T02:08:26;5.25;;;1.80;;
22005;SDS011;11167;46.988;15.470;2022-08-19T02:10:28;4.17;;;2.02;;
22005;SDS011;11167;46.988;15.470;2022-08-19T02:12:29;2.52;;;1.32;;
22005;SDS011;11167;46.988;15.470;2022-08-19T02:14:30;4.87;;;1.70;;
22005;SDS011;11167;46.988;15.470;2022-08-19T02:16:31;4.92;;;1.72;;
22005;SDS011;11167;46.988;15.470;2022-08-19T02:18:33;4.90;;;1.80;;
22005;SDS011;11167;46.988;15.470;2022-08-19T02:20:35;5.37;;;2.15;;
22005;SDS011;11167;46.988;15.470;2022-08-19T02:22:36;3.77;;;1.77;;
22005;SDS011;11167;46.988;15.470;2022-08-19T02:24:37;5.03;;;1.65;;
22005;SDS011;11167;46.988;15.470;2022-08-19T02:26:39;4.92;;;1.77;;
22005;SDS011;11167;46.988;15.470;2022-08-19T02:28:40;4.45;;;1.87;;
22005;SDS011;11167;46.988;15.470;2022-08-19T02:30:43;4.67;;;1.72;;
22005;SDS011;11167;46.988;15.470;2022-08-19T02:32:44;2.72;;;1.62;;
22005;SDS011;11167;46.988;15.470;2022-08-19T02:34:45;4.90;;;1.92;;
22005;SDS011;11167;46.988;15.470;2022-08-19T02:36:47;3.58;;;1.50;;
22005;SDS011;11167;46.988;15.470;2022-08-19T02:38:48;4.65;;;1.85;;
22005;SDS011;11167;46.988;15.470;2022-08-19T02:40:50;5.80;;;1.95;;
22005;SDS011;11167;46.988;15.470;2022-08-19T02:42:53;3.15;;;1.52;;
22005;SDS011;11167;46.988;15.470;2022-08-19T02:44:55;5.50;;;2.10;;
22005;SDS011;11167;46.988;15.470;2022-08-19T02:46:56;3.58;;;1.82;;
22005;SDS011;11167;46.988;15.470;2022-08-19T02:48:59;4.97;;;1.82;;
22005;SDS011;11167;46.988;15.470;2022-08-19T02:51:02;2.87;;;1.50;;
22005;SDS011;11167;46.988;15.470;2022-08-19T02:53:05;3.08;;;1.47;;
22005;SDS011;11167;46.988;15.470;2022-08-19T02:55:07;2.40;;;1.50;;
22005;SDS011;11167;46.988;15.470;2022-08-19T02:57:09;3.40;;;1.55;;
22005;SDS011;11167;46.988;15.470;2022-08-19T02:59:10;4.25;;;1.70;;
22005;SDS011;11167;46.988;15.470;2022-08-19T03:01:19;2.62;;;1.30;;
22005;SDS011;11167;46.988;15.470;2022-08-19T03:03:25;1.90;;;1.15;;
22005;SDS011;11167;46.988;15.470;2022-08-19T03:05:27;3.10;;;1.57;;
22005;SDS011;11167;46.988;15.470;2022-08-19T03:07:28;6.05;;;1.67;;
22005;SDS011;11167;46.988;15.470;2022-08-19T03:09:29;6.45;;;1.47;;
22005;SDS011;11167;46.988;15.470;2022-08-19T03:11:31;2.98;;;1.57;;
22005;SDS011;11167;46.988;15.470;2022-08-19T03:13:33;3.45;;;1.60;;
22005;SDS011;11167;46.988;15.470;2022-08-19T03:15:34;2.52;;;1.60;;
22005;SDS011;11167;46.988;15.470;2022-08-19T03:17:37;3.77;;;1.67;;
22005;SDS011;11167;46.988;15.470;2022-08-19T03:19:38;3.50;;;1.60;;
22005;SDS011;11167;46.988;15.470;2022-08-19T03:21:40;5.62;;;1.50;;
22005;SDS011;11167;46.988;15.470;2022-08-19T03:23:45;5.37;;;1.60;;
22005;SDS011;11167;46.988;15.470;2022-08-19T03:25:47;2.65;;;1.65;;
22005;SDS011;11167;46.988;15.470;2022-08-19T03:27:50;3.40;;;1.90;;
22005;SDS011;11167;46.988;15.470;2022-08-19T03:29:51;4.83;;;1.50;;
22005;SDS011;11167;46.988;15.470;2022-08-19T03:31:52;3.42;;;1.62;;
22005;SDS011;11167;46.988;15.470;2022-08-19T03:33:56;3.27;;;1.50;;
22005;SDS011;11167;46.988;15.470;2022-08-19T03:36:04;4.12;;;1.60;;
22005;SDS011;11167;46.988;15.470;2022-08-19T03:38:11;3.67;;;1.60;;
22005;SDS011;11167;46.988;15.470;2022-08-19T03:40:12;2.85;;;1.50;;
22005;SDS011;11167;46.988;15.470;2022-08-19T03:42:13;7.53;;;1.62;;
22005;SDS011;11167;46.988;15.470;2022-08-19T03:44:17;4.97;;;1.82;;
22005;SDS011;11167;46.988;15.470;2022-08-19T03:46:27;4.17;;;1.65;;
22005;SDS011;11167;46.988;15.470;2022-08-19T03:48:29;3.77;;;1.92;;
22005;SDS011;11167;46.988;15.470;2022-08-19T03:50:31;5.97;;;1.95;;
22005;SDS011;11167;46.988;15.470;2022-08-19T03:52:32;5.25;;;1.70;;
22005;SDS011;11167;46.988;15.470;2022-08-19T03:54:34;3.30;;;1.85;;
22005;SDS011;11167;46.988;15.470;2022-08-19T03:56:36;4.17;;;1.42;;
22005;SDS011;11167;46.988;15.470;2022-08-19T03:58:39;5.95;;;1.90;;
22005;SDS011;11167;46.988;15.470;2022-08-19T04:00:44;6.12;;;2.20;;
22005;SDS011;11167;46.988;15.470;2022-08-19T04:02:45;5.03;;;2.20;;
22005;SDS011;11167;46.988;15.470;2022-08-19T04:04:46;5.58;;;2.37;;
22005;SDS011;11167;46.988;15.470;2022-08-19T04:06:47;3.87;;;2.05;;
22005;SDS011;11167;46.988;15.470;2022-08-19T04:08:49;3.37;;;1.90;;
22005;SDS011;11167;46.988;15.470;2022-08-19T04:10:52;3.15;;;2.00;;
22005;SDS011;11167;46.988;15.470;2022-08-19T04:12:54;5.55;;;2.30;;
22005;SDS011;11167;46.988;15.470;2022-08-19T04:14:55;4.12;;;1.98;;
22005;SDS011;11167;46.988;15.470;2022-08-19T04:16:57;5.00;;;1.90;;
22005;SDS011;11167;46.988;15.470;2022-08-19T04:19:00;6.05;;;1.80;;
22005;SDS011;11167;46.988;15.470;2022-08-19T04:21:02;5.65;;;2.12;;
22005;SDS011;11167;46.988;15.470;2022-08-19T04:23:04;2.95;;;1.72;;
22005;SDS011;11167;46.988;15.470;2022-08-19T04:25:05;4.10;;;1.75;;
22005;SDS011;11167;46.988;15.470;2022-08-19T04:27:07;3.67;;;1.70;;
22005;SDS011;11167;46.988;15.470;2022-08-19T04:29:10;6.30;;;1.98;;
22005;SDS011;11167;46.988;15.470;2022-08-19T04:31:13;3.52;;;1.70;;
22005;SDS011;11167;46.988;15.470;2022-08-19T04:33:24;4.10;;;2.10;;
22005;SDS011;11167;46.988;15.470;2022-08-19T04:35:24;2.75;;;1.45;;
22005;SDS011;11167;46.988;15.470;2022-08-19T04:37:26;3.75;;;2.10;;
22005;SDS011;11167;46.988;15.470;2022-08-19T04:39:28;3.17;;;1.65;;
22005;SDS011;11167;46.988;15.470;2022-08-19T04:41:49;4.62;;;1.90;;
22005;SDS011;11167;46.988;15.470;2022-08-19T04:44:09;3.52;;;1.72;;
22005;SDS011;11167;46.988;15.470;2022-08-19T04:46:11;3.42;;;1.60;;
22005;SDS011;11167;46.988;15.470;2022-08-19T04:48:13;4.15;;;1.85;;
22005;SDS011;11167;46.988;15.470;2022-08-19T04:50:14;4.00;;;1.90;;
22005;SDS011;11167;46.988;15.470;2022-08-19T04:52:15;3.72;;;1.95;;
22005;SDS011;11167;46.988;15.470;2022-08-19T04:54:17;5.40;;;2.10;;
22005;SDS011;11167;46.988;15.470;2022-08-19T04:56:20;4.58;;;2.08;;
22005;SDS011;11167;46.988;15.470;2022-08-19T04:58:23;4.03;;;1.95;;
22005;SDS011;11167;46.988;15.470;2022-08-19T05:00:26;3.50;;;2.20;;
22005;SDS011;11167;46.988;15.470;2022-08-19T05:02:27;3.45;;;1.95;;
22005;SDS011;11167;46.988;15.470;2022-08-19T05:04:29;4.22;;;2.00;;
22005;SDS011;11167;46.988;15.470;2022-08-19T05:06:32;3.00;;;2.00;;
22005;SDS011;11167;46.988;15.470;2022-08-19T05:08:35;5.12;;;2.20;;
22005;SDS011;11167;46.988;15.470;2022-08-19T05:10:37;3.93;;;1.60;;
22005;SDS011;11167;46.988;15.470;2022-08-19T05:12:40;4.25;;;1.90;;
22005;SDS011;11167;46.988;15.470;2022-08-19T05:14:41;4.00;;;2.17;;
22005;SDS011;11167;46.988;15.470;2022-08-19T05:16:42;3.08;;;1.60;;
22005;SDS011;11167;46.988;15.470;2022-08-19T05:18:43;4.17;;;1.90;;
22005;SDS011;11167;46.988;15.470;2022-08-19T05:21:08;4.20;;;2.27;;
22005;SDS011;11167;46.988;15.470;2022-08-19T05:23:29;3.10;;;1.72;;
22005;SDS011;11167;46.988;15.470;2022-08-19T05:25:30;3.27;;;1.62;;
22005;SDS011;11167;46.988;15.470;2022-08-19T05:27:32;4.15;;;1.80;;
22005;SDS011;11167;46.988;15.470;2022-08-19T05:29:33;4.87;;;2.10;;
22005;SDS011;11167;46.988;15.470;2022-08-19T05:31:35;4.45;;;2.12;;
22005;SDS011;11167;46.988;15.470;2022-08-19T05:33:37;4.65;;;2.22;;
22005;SDS011;11167;46.988;15.470;2022-08-19T05:35:40;4.00;;;1.72;;
22005;SDS011;11167;46.988;15.470;2022-08-19T05:37:41;4.28;;;2.40;;
22005;SDS011;11167;46.988;15.470;2022-08-19T05:39:42;3.77;;;1.80;;
22005;SDS011;11167;46.988;15.470;2022-08-19T05:41:47;3.80;;;2.00;;
22005;SDS011;11167;46.988;15.470;2022-08-19T05:43:51;3.92;;;1.80;;
22005;SDS011;11167;46.988;15.470;2022-08-19T05:45:52;4.28;;;2.00;;
22005;SDS011;11167;46.988;15.470;2022-08-19T05:47:53;3.65;;;2.20;;
22005;SDS011;11167;46.988;15.470;2022-08-19T05:49:55;2.87;;;1.95;;
22005;SDS011;11167;46.988;15.470;2022-08-19T05:51:56;3.92;;;1.98;;
22005;SDS011;11167;46.988;15.470;2022-08-19T05:53:57;2.75;;;1.65;;
22005;SDS011;11167;46.988;15.470;2022-08-19T05:55:58;4.08;;;1.70;;
22005;SDS011;11167;46.988;15.470;2022-08-19T05:58:06;2.55;;;1.60;;
22005;SDS011;11167;46.988;15.470;2022-08-19T06:00:10;2.10;;;1.50;;
22005;SDS011;11167;46.988;15.470;2022-08-19T06:02:12;3.77;;;2.05;;
22005;SDS011;11167;46.988;15.470;2022-08-19T06:04:14;3.22;;;1.90;;
22005;SDS011;11167;46.988;15.470;2022-08-19T06:06:15;3.72;;;1.80;;
22005;SDS011;11167;46.988;15.470;2022-08-19T06:08:17;3.62;;;1.60;;
22005;SDS011;11167;46.988;15.470;2022-08-19T06:10:18;2.37;;;1.50;;
22005;SDS011;11167;46.988;15.470;2022-08-19T06:12:20;2.37;;;1.80;;
22005;SDS011;11167;46.988;15.470;2022-08-19T06:14:24;2.60;;;1.50;;
22005;SDS011;11167;46.988;15.470;2022-08-19T06:16:30;3.50;;;1.75;;
22005;SDS011;11167;46.988;15.470;2022-08-19T06:18:33;2.50;;;1.60;;
22005;SDS011;11167;46.988;15.470;2022-08-19T06:20:35;2.77;;;1.50;;
22005;SDS011;11167;46.988;15.470;2022-08-19T06:22:39;3.45;;;1.75;;
22005;SDS011;11167;46.988;15.470;2022-08-19T06:24:41;4.08;;;1.77;;
22005;SDS011;11167;46.988;15.470;2022-08-19T06:26:45;3.20;;;1.60;;
22005;SDS011;11167;46.988;15.470;2022-08-19T06:28:47;4.03;;;1.67;;
22005;SDS011;11167;46.988;15.470;2022-08-19T06:30:49;1.70;;;1.30;;
22005;SDS011;11167;46.988;15.470;2022-08-19T06:32:51;4.25;;;1.67;;
22005;SDS011;11167;46.988;15.470;2022-08-19T06:34:53;3.35;;;1.90;;
22005;SDS011;11167;46.988;15.470;2022-08-19T06:36:54;3.60;;;1.65;;
22005;SDS011;11167;46.988;15.470;2022-08-19T06:38:58;2.50;;;1.60;;
22005;SDS011;11167;46.988;15.470;2022-08-19T06:41:00;2.50;;;1.40;;
22005;SDS011;11167;46.988;15.470;2022-08-19T06:43:03;2.37;;;1.40;;
22005;SDS011;11167;46.988;15.470;2022-08-19T06:45:04;3.05;;;1.72;;
22005;SDS011;11167;46.988;15.470;2022-08-19T06:47:07;3.47;;;1.62;;
22005;SDS011;11167;46.988;15.470;2022-08-19T06:49:09;2.35;;;1.50;;
22005;SDS011;11167;46.988;15.470;2022-08-19T06:51:13;4.00;;;1.90;;
22005;SDS011;11167;46.988;15.470;2022-08-19T06:53:16;1.65;;;1.30;;
22005;SDS011;11167;46.988;15.470;2022-08-19T06:55:19;3.97;;;1.50;;
22005;SDS011;11167;46.988;15.470;2022-08-19T06:57:20;2.65;;;1.60;;
22005;SDS011;11167;46.988;15.470;2022-08-19T06:59:22;2.47;;;1.60;;
22005;SDS011;11167;46.988;15.470;2022-08-19T07:01:26;3.77;;;1.60;;
22005;SDS011;11167;46.988;15.470;2022-08-19T07:03:32;3.08;;;1.62;;
22005;SDS011;11167;46.988;15.470;2022-08-19T07:05:39;3.90;;;1.85;;
22005;SDS011;11167;46.988;15.470;2022-08-19T07:07:41;3.47;;;1.55;;
22005;SDS011;11167;46.988;15.470;2022-08-19T07:09:45;3.12;;;1.55;;
22005;SDS011;11167;46.988;15.470;2022-08-19T07:11:47;3.15;;;1.67;;
22005;SDS011;11167;46.988;15.470;2022-08-19T07:13:50;4.12;;;1.77;;
22005;SDS011;11167;46.988;15.470;2022-08-19T07:15:51;4.17;;;1.70;;
22005;SDS011;11167;46.988;15.470;2022-08-19T07:17:53;2.50;;;1.55;;
22005;SDS011;11167;46.988;15.470;2022-08-19T07:19:54;2.67;;;1.52;;
22005;SDS011;11167;46.988;15.470;2022-08-19T07:21:55;2.62;;;1.50;;
22005;SDS011;11167;46.988;15.470;2022-08-19T07:23:56;2.65;;;1.60;;
22005;SDS011;11167;46.988;15.470;2022-08-19T07:26:07;3.00;;;1.60;;
22005;SDS011;11167;46.988;15.470;2022-08-19T07:28:09;2.77;;;1.60;;
22005;SDS011;11167;46.988;15.470;2022-08-19T07:30:10;3.12;;;1.70;;
22005;SDS011;11167;46.988;15.470;2022-08-19T07:32:12;2.58;;;1.80;;
22005;SDS011;11167;46.988;15.470;2022-08-19T07:34:13;3.20;;;1.55;;
22005;SDS011;11167;46.988;15.470;2022-08-19T07:36:16;1.62;;;1.20;;
22005;SDS011;11167;46.988;15.470;2022-08-19T07:38:19;3.50;;;1.50;;
22005;SDS011;11167;46.988;15.470;2022-08-19T07:40:21;2.92;;;1.32;;
22005;SDS011;11167;46.988;15.470;2022-08-19T07:42:23;2.08;;;1.47;;
22005;SDS011;11167;46.988;15.470;2022-08-19T07:44:25;3.08;;;1.50;;
22005;SDS011;11167;46.988;15.470;2022-08-19T07:46:26;2.87;;;1.60;;
22005;SDS011;11167;46.988;15.470;2022-08-19T07:48:28;3.35;;;1.45;;
22005;SDS011;11167;46.988;15.470;2022-08-19T07:50:30;2.22;;;1.30;;
22005;SDS011;11167;46.988;15.470;2022-08-19T07:52:33;2.80;;;1.30;;
22005;SDS011;11167;46.988;15.470;2022-08-19T07:54:37;1.93;;;1.50;;
22005;SDS011;11167;46.988;15.470;2022-08-19T07:56:39;2.52;;;1.20;;
22005;SDS011;11167;46.988;15.470;2022-08-19T07:58:42;2.17;;;1.37;;
22005;SDS011;11167;46.988;15.470;2022-08-19T08:00:48;2.05;;;1.40;;
22005;SDS011;11167;46.988;15.470;2022-08-19T08:02:49;3.05;;;1.40;;
22005;SDS011;11167;46.988;15.470;2022-08-19T08:04:51;2.40;;;1.20;;
22005;SDS011;11167;46.988;15.470;2022-08-19T08:07:06;3.22;;;1.52;;
22005;SDS011;11167;46.988;15.470;2022-08-19T08:09:28;2.37;;;1.65;;
22005;SDS011;11167;46.988;15.470;2022-08-19T08:11:34;3.62;;;1.80;;
22005;SDS011;11167;46.988;15.470;2022-08-19T08:13:39;3.10;;;1.52;;
22005;SDS011;11167;46.988;15.470;2022-08-19T08:15:42;3.90;;;1.40;;
22005;SDS011;11167;46.988;15.470;2022-08-19T08:17:46;1.95;;;1.52;;
22005;SDS011;11167;46.988;15.470;2022-08-19T08:19:49;2.60;;;1.45;;
22005;SDS011;11167;46.988;15.470;2022-08-19T08:21:54;2.05;;;1.45;;
22005;SDS011;11167;46.988;15.470;2022-08-19T08:23:56;2.45;;;1.40;;
22005;SDS011;11167;46.988;15.470;2022-08-19T08:25:57;2.05;;;1.42;;
22005;SDS011;11167;46.988;15.470;2022-08-19T08:27:59;2.12;;;1.50;;
22005;SDS011;11167;46.988;15.470;2022-08-19T08:30:00;2.50;;;1.40;;
22005;SDS011;11167;46.988;15.470;2022-08-19T08:32:02;2.15;;;1.30;;
22005;SDS011;11167;46.988;15.470;2022-08-19T08:34:04;2.45;;;1.37;;
22005;SDS011;11167;46.988;15.470;2022-08-19T08:36:05;2.52;;;1.30;;
22005;SDS011;11167;46.988;15.470;2022-08-19T08:38:06;3.25;;;1.40;;
22005;SDS011;11167;46.988;15.470;2022-08-19T08:40:30;2.77;;;1.30;;
22005;SDS011;11167;46.988;15.470;2022-08-19T08:42:24;2.47;;;1.40;;
22005;SDS011;11167;46.988;15.470;2022-08-19T08:46:48;2.47;;;1.65;;
22005;SDS011;11167;46.988;15.470;2022-08-19T08:51:14;3.85;;;1.60;;
22005;SDS011;11167;46.988;15.470;2022-08-19T08:53:17;2.40;;;1.52;;
22005;SDS011;11167;46.988;15.470;2022-08-19T08:55:22;4.12;;;1.72;;
22005;SDS011;11167;46.988;15.470;2022-08-19T08:59:36;2.45;;;1.37;;
22005;SDS011;11167;46.988;15.470;2022-08-19T09:01:39;3.65;;;1.50;;
22005;SDS011;11167;46.988;15.470;2022-08-19T09:03:41;2.62;;;1.40;;
22005;SDS011;11167;46.988;15.470;2022-08-19T09:06:02;3.62;;;1.70;;
22005;SDS011;11167;46.988;15.470;2022-08-19T09:10:49;1.65;;;1.15;;
22005;SDS011;11167;46.988;15.470;2022-08-19T09:15:22;1.90;;;1.15;;
22005;SDS011;11167;46.988;15.470;2022-08-19T09:17:29;1.92;;;1.05;;
22005;SDS011;11167;46.988;15.470;2022-08-19T09:19:31;1.30;;;1.02;;
22005;SDS011;11167;46.988;15.470;2022-08-19T09:21:33;2.87;;;1.40;;
22005;SDS011;11167;46.988;15.470;2022-08-19T09:23:35;1.50;;;1.02;;
22005;SDS011;11167;46.988;15.470;2022-08-19T09:25:37;2.22;;;1.40;;
22005;SDS011;11167;46.988;15.470;2022-08-19T09:27:40;2.03;;;1.20;;
22005;SDS011;11167;46.988;15.470;2022-08-19T09:29:42;1.40;;;1.02;;
22005;SDS011;11167;46.988;15.470;2022-08-19T09:31:44;3.27;;;1.20;;
22005;SDS011;11167;46.988;15.470;2022-08-19T09:33:45;1.57;;;1.17;;
22005;SDS011;11167;46.988;15.470;2022-08-19T09:35:47;2.08;;;1.20;;
22005;SDS011;11167;46.988;15.470;2022-08-19T09:37:48;1.30;;;1.10;;
22005;SDS011;11167;46.988;15.470;2022-08-19T09:39:50;2.22;;;1.10;;
22005;SDS011;11167;46.988;15.470;2022-08-19T09:41:51;2.33;;;1.07;;
22005;SDS011;11167;46.988;15.470;2022-08-19T09:43:54;4.30;;;1.65;;
22005;SDS011;11167;46.988;15.470;2022-08-19T09:45:57;2.70;;;1.00;;
22005;SDS011;11167;46.988;15.470;2022-08-19T09:47:58;1.35;;;0.82;;
22005;SDS011;11167;46.988;15.470;2022-08-19T09:49:59;3.22;;;1.10;;
22005;SDS011;11167;46.988;15.470;2022-08-19T09:52:01;1.20;;;1.00;;
22005;SDS011;11167;46.988;15.470;2022-08-19T09:54:03;1.60;;;0.90;;
22005;SDS011;11167;46.988;15.470;2022-08-19T09:56:05;1.05;;;0.95;;
22005;SDS011;11167;46.988;15.470;2022-08-19T09:58:06;1.42;;;1.17;;
22005;SDS011;11167;46.988;15.470;2022-08-19T10:00:08;1.35;;;0.88;;
22005;SDS011;11167;46.988;15.470;2022-08-19T10:02:10;2.27;;;1.17;;
22005;SDS011;11167;46.988;15.470;2022-08-19T10:04:12;1.17;;;1.07;;
22005;SDS011;11167;46.988;15.470;2022-08-19T10:06:13;1.52;;;1.07;;
22005;SDS011;11167;46.988;15.470;2022-08-19T10:08:24;1.30;;;1.20;;
22005;SDS011;11167;46.988;15.470;2022-08-19T10:10:22;2.55;;;1.40;;
22005;SDS011;11167;46.988;15.470;2022-08-19T10:12:24;2.25;;;1.25;;
22005;SDS011;11167;46.988;15.470;2022-08-19T10:14:25;2.45;;;1.17;;
22005;SDS011;11167;46.988;15.470;2022-08-19T10:16:27;1.75;;;0.93;;
22005;SDS011;11167;46.988;15.470;2022-08-19T10:18:29;2.15;;;1.10;;
22005;SDS011;11167;46.988;15.470;2022-08-19T10:20:30;2.50;;;1.30;;
22005;SDS011;11167;46.988;15.470;2022-08-19T10:22:32;2.60;;;1.10;;
22005;SDS011;11167;46.988;15.470;2022-08-19T10:24:35;1.40;;;0.90;;
22005;SDS011;11167;46.988;15.470;2022-08-19T10:26:37;1.95;;;1.10;;
22005;SDS011;11167;46.988;15.470;2022-08-19T10:28:42;1.95;;;1.10;;
22005;SDS011;11167;46.988;15.470;2022-08-19T10:30:44;1.50;;;1.00;;
22005;SDS011;11167;46.988;15.470;2022-08-19T10:32:45;3.17;;;1.05;;
22005;SDS011;11167;46.988;15.470;2022-08-19T10:34:46;1.90;;;0.95;;
22005;SDS011;11167;46.988;15.470;2022-08-19T10:39:09;1.07;;;0.88;;
22005;SDS011;11167;46.988;15.470;2022-08-19T10:41:16;2.30;;;1.32;;
22005;SDS011;11167;46.988;15.470;2022-08-19T10:43:16;1.30;;;1.12;;
22005;SDS011;11167;46.988;15.470;2022-08-19T10:45:18;2.40;;;1.00;;
22005;SDS011;11167;46.988;15.470;2022-08-19T10:47:21;2.27;;;1.10;;
22005;SDS011;11167;46.988;15.470;2022-08-19T10:49:22;1.98;;;1.07;;
22005;SDS011;11167;46.988;15.470;2022-08-19T10:51:24;3.58;;;1.17;;
22005;SDS011;11167;46.988;15.470;2022-08-19T10:53:44;2.90;;;1.00;;
22005;SDS011;11167;46.988;15.470;2022-08-19T10:55:45;2.27;;;1.20;;
22005;SDS011;11167;46.988;15.470;2022-08-19T10:58:09;1.65;;;1.07;;
22005;SDS011;11167;46.988;15.470;2022-08-19T11:00:12;1.35;;;1.10;;
22005;SDS011;11167;46.988;15.470;2022-08-19T11:02:14;1.77;;;1.10;;
22005;SDS011;11167;46.988;15.470;2022-08-19T11:04:17;1.67;;;1.10;;
22005;SDS011;11167;46.988;15.470;2022-08-19T11:06:19;1.70;;;1.02;;
22005;SDS011;11167;46.988;15.470;2022-08-19T11:08:21;2.45;;;1.10;;
22005;SDS011;11167;46.988;15.470;2022-08-19T11:10:23;1.77;;;1.02;;
22005;SDS011;11167;46.988;15.470;2022-08-19T11:12:24;1.67;;;1.00;;
22005;SDS011;11167;46.988;15.470;2022-08-19T11:14:25;2.75;;;1.10;;
22005;SDS011;11167;46.988;15.470;2022-08-19T11:16:26;1.67;;;1.12;;
22005;SDS011;11167;46.988;15.470;2022-08-19T11:18:29;2.77;;;1.20;;
22005;SDS011;11167;46.988;15.470;2022-08-19T11:20:30;2.05;;;1.10;;
22005;SDS011;11167;46.988;15.470;2022-08-19T11:22:32;1.47;;;1.00;;
22005;SDS011;11167;46.988;15.470;2022-08-19T11:24:33;1.55;;;1.20;;
22005;SDS011;11167;46.988;15.470;2022-08-19T11:26:35;1.25;;;0.95;;
22005;SDS011;11167;46.988;15.470;2022-08-19T11:28:37;1.57;;;1.02;;
22005;SDS011;11167;46.988;15.470;2022-08-19T11:30:39;1.50;;;0.98;;
22005;SDS011;11167;46.988;15.470;2022-08-19T11:32:40;1.30;;;0.88;;
22005;SDS011;11167;46.988;15.470;2022-08-19T11:34:41;1.77;;;0.90;;
22005;SDS011;11167;46.988;15.470;2022-08-19T11:36:43;2.85;;;1.20;;
22005;SDS011;11167;46.988;15.470;2022-08-19T11:38:46;1.10;;;0.80;;
22005;SDS011;11167;46.988;15.470;2022-08-19T11:40:56;1.45;;;1.00;;
22005;SDS011;11167;46.988;15.470;2022-08-19T11:42:58;1.72;;;1.00;;
22005;SDS011;11167;46.988;15.470;2022-08-19T11:45:00;2.83;;;1.32;;
22005;SDS011;11167;46.988;15.470;2022-08-19T11:47:01;2.47;;;0.80;;
22005;SDS011;11167;46.988;15.470;2022-08-19T11:49:03;1.60;;;1.17;;
22005;SDS011;11167;46.988;15.470;2022-08-19T11:51:07;2.45;;;1.30;;
22005;SDS011;11167;46.988;15.470;2022-08-19T11:53:11;2.33;;;1.35;;
22005;SDS011;11167;46.988;15.470;2022-08-19T11:55:12;1.10;;;0.95;;
22005;SDS011;11167;46.988;15.470;2022-08-19T11:57:14;1.32;;;0.93;;
22005;SDS011;11167;46.988;15.470;2022-08-19T11:59:17;2.33;;;1.30;;
22005;SDS011;11167;46.988;15.470;2022-08-19T12:01:19;0.98;;;0.82;;
22005;SDS011;11167;46.988;15.470;2022-08-19T12:03:21;1.42;;;1.20;;
22005;SDS011;11167;46.988;15.470;2022-08-19T12:05:23;1.22;;;1.00;;
22005;SDS011;11167;46.988;15.470;2022-08-19T12:07:24;1.52;;;1.20;;
22005;SDS011;11167;46.988;15.470;2022-08-19T12:09:25;2.20;;;1.00;;
22005;SDS011;11167;46.988;15.470;2022-08-19T12:11:28;2.58;;;1.25;;
22005;SDS011;11167;46.988;15.470;2022-08-19T12:13:30;1.50;;;1.30;;
22005;SDS011;11167;46.988;15.470;2022-08-19T12:15:35;1.17;;;1.07;;
22005;SDS011;11167;46.988;15.470;2022-08-19T12:17:41;1.55;;;1.10;;
22005;SDS011;11167;46.988;15.470;2022-08-19T12:19:42;3.08;;;1.30;;
22005;SDS011;11167;46.988;15.470;2022-08-19T12:21:44;1.55;;;1.10;;
22005;SDS011;11167;46.988;15.470;2022-08-19T12:23:46;4.28;;;1.72;;